createdAt,value
2016-09-19T14:31:34.508Z,1012.45
2016-09-19T14:32:34.195Z,1012.43
2016-09-19T14:33:34.140Z,1012.42
2016-09-19T14:34:34.075Z,1012.37
2016-09-19T14:35:34.016Z,1012.41
2016-09-19T14:36:33.962Z,1012.41
2016-09-19T14:37:33.897Z,1012.38
2016-09-19T14:38:33.837Z,1012.4
2016-09-19T14:39:33.778Z,1012.42
2016-09-19T14:40:33.720Z,1012.42
2016-09-19T14:41:33.660Z,1012.39
2016-09-19T14:42:33.599Z,1012.42
2016-09-19T14:43:33.537Z,1012.4
2016-09-19T14:44:33.477Z,1012.47
2016-09-19T14:45:33.619Z,1012.46
2016-09-19T14:46:33.363Z,1012.47
2016-09-19T14:47:33.299Z,1012.5
2016-09-19T14:48:33.237Z,1012.45
2016-09-19T14:49:33.181Z,1012.47
2016-09-19T14:50:33.118Z,1012.46
2016-09-19T14:51:33.062Z,1012.43
2016-09-19T14:52:33.007Z,1012.5
2016-09-19T14:53:32.942Z,1012.47
2016-09-19T14:54:32.881Z,1012.46
2016-09-19T14:55:32.826Z,1012.45
2016-09-19T14:56:32.766Z,1012.49
2016-09-19T14:57:32.704Z,1012.46
2016-09-19T14:58:32.657Z,1012.48
2016-09-19T14:59:32.578Z,1012.45
2016-09-19T15:00:32.522Z,1012.48
2016-09-19T15:01:32.464Z,1012.5
2016-09-19T15:02:32.399Z,1012.5
2016-09-19T15:03:32.338Z,1012.51
2016-09-19T15:04:32.278Z,1012.52
2016-09-19T15:05:32.224Z,1012.54
2016-09-19T15:06:32.162Z,1012.56
2016-09-19T15:07:32.099Z,1012.54
2016-09-19T15:08:32.061Z,1012.55
2016-09-19T15:09:31.994Z,1012.56
2016-09-19T15:10:32.156Z,1012.56
2016-09-19T15:11:31.861Z,1012.57
2016-09-19T15:12:31.797Z,1012.54
2016-09-19T15:13:31.742Z,1012.53
2016-09-19T15:14:31.678Z,1012.55
2016-09-19T15:15:31.618Z,1012.56
2016-09-19T15:16:31.561Z,1012.61
2016-09-19T15:17:31.501Z,1012.58
2016-09-19T15:18:31.640Z,1012.62
2016-09-19T15:19:31.379Z,1012.59
2016-09-19T15:20:31.522Z,1012.62
2016-09-19T15:21:31.260Z,1012.65
2016-09-19T15:22:31.196Z,1012.66
2016-09-19T15:23:31.141Z,1012.65
2016-09-19T15:24:31.282Z,1012.65
2016-09-19T15:25:31.026Z,1012.63
2016-09-19T15:26:30.961Z,1012.63
2016-09-19T15:27:30.897Z,1012.64
2016-09-19T15:28:30.839Z,1012.63
2016-09-19T15:29:30.777Z,1012.62
2016-09-19T15:30:30.718Z,1012.65
2016-09-19T15:31:30.655Z,1012.66
2016-09-19T15:32:30.802Z,1012.62
2016-09-19T15:33:30.535Z,1012.65
2016-09-19T15:34:30.504Z,1012.68
2016-09-19T15:35:30.414Z,1012.72
2016-09-19T15:36:30.358Z,1012.68
2016-09-19T15:37:30.301Z,1012.67
2016-09-19T15:38:30.237Z,1012.68
2016-09-19T15:39:30.177Z,1012.7
2016-09-19T15:40:30.117Z,1012.66
2016-09-19T15:41:30.058Z,1012.66
2016-09-19T15:42:30.000Z,1012.67
2016-09-19T15:43:29.936Z,1012.69
2016-09-19T15:44:29.875Z,1012.63
2016-09-19T15:45:29.815Z,1012.63
2016-09-19T15:46:29.761Z,1012.68
2016-09-19T15:47:29.696Z,1012.68
2016-09-19T15:48:29.637Z,1012.69
2016-09-19T15:49:29.576Z,1012.67
2016-09-19T15:50:29.518Z,1012.66
2016-09-19T15:51:29.457Z,1012.68
2016-09-19T15:52:29.400Z,1012.66
2016-09-19T15:53:29.343Z,1012.66
2016-09-19T15:54:29.299Z,1012.65
2016-09-19T15:55:29.217Z,1012.67
2016-09-19T15:56:29.157Z,1012.65
2016-09-19T15:57:29.101Z,1012.63
2016-09-19T15:58:29.237Z,1012.67
2016-09-19T15:59:29.176Z,1012.64
2016-09-19T16:00:28.918Z,1012.65
2016-09-19T16:01:28.858Z,1012.67
2016-09-19T16:02:28.793Z,1012.62
2016-09-19T16:03:28.937Z,1012.65
2016-09-19T16:04:28.888Z,1012.61
2016-09-19T16:05:28.617Z,1012.59
2016-09-19T16:06:28.757Z,1012.59
2016-09-19T16:07:28.496Z,1012.62
2016-09-19T16:08:28.646Z,1012.61
2016-09-19T16:09:28.379Z,1012.64
2016-09-19T16:10:28.318Z,1012.59
2016-09-19T16:11:28.255Z,1012.58
2016-09-19T16:12:28.201Z,1012.6
2016-09-19T16:13:28.134Z,1012.61
2016-09-19T16:14:28.082Z,1012.6
2016-09-19T16:15:28.017Z,1012.6
2016-09-19T16:16:27.959Z,1012.59
2016-09-19T16:17:28.101Z,1012.62
2016-09-19T16:18:27.840Z,1012.65
2016-09-19T16:19:27.776Z,1012.64
2016-09-19T16:20:27.719Z,1012.66
2016-09-19T16:21:27.656Z,1012.6
2016-09-19T16:22:27.598Z,1012.61
2016-09-19T16:23:27.548Z,1012.61
2016-09-19T16:24:28.677Z,1012.58
2016-09-19T16:25:27.424Z,1012.64
2016-09-19T16:26:27.358Z,1012.63
2016-09-19T16:27:27.298Z,1012.63
2016-09-19T16:28:27.241Z,1012.64
2016-09-19T16:29:27.182Z,1012.65
2016-09-19T16:30:27.119Z,1012.62
2016-09-19T16:31:27.059Z,1012.61
2016-09-19T16:32:26.998Z,1012.6
2016-09-19T16:33:26.937Z,1012.64
2016-09-19T16:34:26.877Z,1012.62
2016-09-19T16:35:26.823Z,1012.63
2016-09-19T16:36:26.763Z,1012.62
2016-09-19T16:37:26.698Z,1012.63
2016-09-19T16:38:26.642Z,1012.67
2016-09-19T16:39:26.580Z,1012.62
2016-09-19T16:40:26.516Z,1012.64
2016-09-19T16:41:26.460Z,1012.65
2016-09-19T16:42:26.599Z,1012.69
2016-09-19T16:43:26.338Z,1012.66
2016-09-19T16:44:26.278Z,1012.68
2016-09-19T16:45:26.217Z,1012.71
2016-09-19T16:46:26.157Z,1012.66
2016-09-19T16:47:26.100Z,1012.64
2016-09-19T16:48:26.037Z,1012.68
2016-09-19T16:49:25.982Z,1012.67
2016-09-19T16:50:25.922Z,1012.68
2016-09-19T16:51:26.063Z,1012.65
2016-09-19T16:52:25.800Z,1012.71
2016-09-19T16:53:25.943Z,1012.7
2016-09-19T16:54:25.882Z,1012.68
2016-09-19T16:55:25.618Z,1012.7
2016-09-19T16:56:25.561Z,1012.72
2016-09-19T16:57:25.498Z,1012.74
2016-09-19T16:58:25.642Z,1012.74
2016-09-19T16:59:25.399Z,1012.74
2016-09-19T17:00:25.322Z,1012.71
2016-09-19T17:01:25.257Z,1012.75
